Time;durP1;ratioP1;P1;durP2;ratioP2;P2;SDS_P1;SDS_P2;PMS_P1;PMS_P2;Temp;Humidity;BMP_temperature;BMP_pressure;BME280_temperature;BME280_humidity;BME280_pressure;Samples;Min_cycle;Max_cycle;Signal;HPM_P1;HPM_P2
2022/09/26 00:00:35;;;;;;;;;;;;;;;;;;5012706;28;19935;-84
2022/09/26 00:03:02;;;;;;;;;;;;;;;;;;4990270;28;19929;-84
2022/09/26 00:05:44;;;;;;;;;;;;;;;;;;4987343;28;19936;-84
2022/09/26 00:08:14;;;;;;;;;;;;;;;;;;5002033;28;19936;-84
2022/09/26 00:10:41;;;;;;;;;;;;;;;;;;4998694;28;19925;-84
2022/09/26 00:13:09;;;;;;;;;;;;;;;;;;4983325;28;20505;-84
2022/09/26 00:15:35;;;;;;;;;;;;;;;;;;4992127;28;20329;-84
2022/09/26 00:18:05;;;;;;;;;;;;;;;;;;4981053;28;19961;-84
2022/09/26 00:20:31;;;;;;;;;;;;;;;;;;4988600;28;19933;-84
2022/09/26 00:22:57;;;;;;;;;;;;;;;;;;4980981;28;19924;-84
2022/09/26 00:25:27;;;;;;;;;;;;;;;;;;5000444;28;19921;-84
2022/09/26 00:27:55;;;;;;;;;;;;;;;;;;4990740;28;19958;-83
2022/09/26 00:30:21;;;;;;;;;;;;;;;;;;4991566;28;19935;-84
2022/09/26 00:32:47;;;;;;;;;;;;;;;;;;5004882;28;19925;-84
2022/09/26 00:35:14;;;;;;;;;;;;;;;;;;5017786;28;19920;-84
2022/09/26 00:37:51;;;;;;;;;;;;;;;;;;5044523;28;19928;-84
2022/09/26 00:40:26;;;;;;;;;;;;;;;;;;5055825;28;19952;-84
2022/09/26 00:42:57;;;;;;;;;;;;;;;;;;5052293;28;20012;-84
2022/09/26 00:45:26;;;;;;;;;;;;;;;;;;5054688;28;19964;-83
2022/09/26 00:47:58;;;;;;;;;;;;;;;;;;5040270;28;20631;-84
2022/09/26 00:50:24;;;;;;;;;;;;;;;;;;5044062;28;19930;-84
2022/09/26 00:52:53;;;;;;;;;;;;;;;;;;5050248;28;19971;-83
2022/09/26 00:55:19;;;;;;;;;;;;;;;;;;5054379;28;20027;-83
2022/09/26 00:57:51;;;;;;;;;;;;;;;;;;5049805;28;19951;-83
2022/09/26 01:00:18;;;;;;;;;;;;;;;;;;5034295;28;19932;-83
2022/09/26 01:02:44;;;;;;;;;;;;;;;;;;5048504;28;20049;-83
2022/09/26 01:05:17;;;;;;;;;;;;;;;;;;5059330;28;19935;-84
2022/09/26 01:07:58;;;;;;;;;;;;;;;;;;4990375;28;20051;-83
2022/09/26 01:10:41;;;;;;;;;;;;;;;;;;4967189;28;19968;-84
2022/09/26 01:13:09;;;;;;;;;;;;;;;;;;4957739;28;20765;-84
2022/09/26 01:15:35;;;;;;;;;;;;;;;;;;4955225;28;19975;-83
2022/09/26 01:18:06;;;;;;;;;;;;;;;;;;4947721;28;19973;-83
2022/09/26 01:20:33;;;;;;;;;;;;;;;;;;4965340;28;19933;-84
2022/09/26 01:22:59;;;;;;;;;;;;;;;;;;4948534;28;19930;-84
2022/09/26 01:25:31;;;;;;;;;;;;;;;;;;4982898;28;19926;-83
2022/09/26 01:27:59;;;;;;;;;;;;;;;;;;4943314;28;19930;-83
2022/09/26 01:30:27;;;;;;;;;;;;;;;;;;4975104;28;19924;-84
2022/09/26 01:33:08;;;;;;;;;;;;;;;;;;4951119;28;20099;-84
2022/09/26 01:35:34;;;;;;;;;;;;;;;;;;4937596;28;19933;-84
2022/09/26 01:38:01;;;;;;;;;;;;;;;;;;4942592;28;20056;-84
2022/09/26 01:40:27;;;;;;;;;;;;;;;;;;5000159;28;19976;-83
2022/09/26 01:42:53;;;;;;;;;;;;;;;;;;5023652;28;20370;-84
2022/09/26 01:45:19;;;;;;;;;;;;;;;;;;5059915;28;19930;-84
2022/09/26 01:47:48;;;;;;;;;;;;;;;;;;5057153;28;19920;-83
2022/09/26 01:50:17;;;;;;;;;;;;;;;;;;5062475;28;19923;-83
2022/09/26 01:52:43;;;;;;;;;;;;;;;;;;5052977;28;19986;-84
2022/09/26 01:55:09;;;;;;;;;;;;;;;;;;5053164;28;20281;-84
2022/09/26 01:57:41;;;;;;;;;;;;;;;;;;5053640;28;19936;-83
2022/09/26 02:00:11;;;;;;;;;;;;;;;;;;5061029;28;19932;-84
2022/09/26 02:02:38;;;;;;;;;;;;;;;;;;5083284;27;19928;-83
2022/09/26 02:05:17;;;;;;;;;;;;;;;;;;5077310;27;19973;-83
2022/09/26 02:07:45;;;;;;;;;;;;;;;;;;5056232;28;19928;-84
2022/09/26 02:10:12;;;;;;;;;;;;;;;;;;5065428;28;19924;-84
2022/09/26 02:12:44;;;;;;;;;;;;;;;;;;5048880;28;19924;-83
2022/09/26 02:15:12;;;;;;;;;;;;;;;;;;5057255;28;19931;-83
2022/09/26 02:17:42;;;;;;;;;;;;;;;;;;5044352;28;20015;-83
2022/09/26 02:20:10;;;;;;;;;;;;;;;;;;5044514;28;19927;-84
2022/09/26 02:22:37;;;;;;;;;;;;;;;;;;5041126;27;20052;-84
2022/09/26 02:25:04;;;;;;;;;;;;;;;;;;5039241;28;20055;-83
2022/09/26 02:27:34;;;;;;;;;;;;;;;;;;5061940;28;19936;-83
2022/09/26 02:30:02;;;;;;;;;;;;;;;;;;5058245;28;20762;-84
2022/09/26 02:32:29;;;;;;;;;;;;;;;;;;5048558;28;19950;-84
2022/09/26 02:34:56;;;;;;;;;;;;;;;;;;5036403;28;19928;-84
2022/09/26 02:37:23;;;;;;;;;;;;;;;;;;5059236;28;19928;-84
2022/09/26 02:39:50;;;;;;;;;;;;;;;;;;5037500;28;19970;-83
2022/09/26 02:42:25;;;;;;;;;;;;;;;;;;5072455;28;19980;-84
2022/09/26 02:44:51;;;;;;;;;;;;;;;;;;5032598;27;19931;-84
2022/09/26 02:47:19;;;;;;;;;;;;;;;;;;5042700;28;19927;-84
2022/09/26 02:49:45;;;;;;;;;;;;;;;;;;5053192;28;20586;-84
2022/09/26 02:52:12;;;;;;;;;;;;;;;;;;5077195;27;20014;-84
2022/09/26 02:54:53;;;;;;;;;;;;;;;;;;4999343;28;19935;-84
2022/09/26 02:57:21;;;;;;;;;;;;;;;;;;5017402;28;20380;-84
2022/09/26 02:59:49;;;;;;;;;;;;;;;;;;4997927;28;20023;-84
2022/09/26 03:02:25;;;;;;;;;;;;;;;;;;5001730;28;19939;-84
2022/09/26 03:04:52;;;;;;;;;;;;;;;;;;4994653;28;19991;-85
2022/09/26 03:07:19;;;;;;;;;;;;;;;;;;5004863;28;20419;-84
2022/09/26 03:09:45;;;;;;;;;;;;;;;;;;4983681;28;19936;-85
2022/09/26 03:12:11;;;;;;;;;;;;;;;;;;4980575;28;19925;-85
2022/09/26 03:14:59;;;;;;;;;;;;;;;;;;4997824;28;19928;-85
2022/09/26 03:17:30;;;;;;;;;;;;;;;;;;4985643;28;19967;-85
2022/09/26 03:19:57;;;;;;;;;;;;;;;;;;4985436;28;20359;-85
2022/09/26 03:22:24;;;;;;;;;;;;;;;;;;5004235;28;19928;-85
2022/09/26 03:24:52;;;;;;;;;;;;;;;;;;5001306;28;20342;-85
2022/09/26 03:27:19;;;;;;;;;;;;;;;;;;5025539;28;20965;-85
2022/09/26 03:29:47;;;;;;;;;;;;;;;;;;5041470;27;20010;-85
2022/09/26 03:32:22;;;;;;;;;;;;;;;;;;5070148;28;19927;-85
2022/09/26 03:34:49;;;;;;;;;;;;;;;;;;5044003;27;19927;-85
2022/09/26 03:37:16;;;;;;;;;;;;;;;;;;5057838;28;19989;-85
2022/09/26 03:39:43;;;;;;;;;;;;;;;;;;5038634;28;19928;-85
2022/09/26 03:42:13;;;;;;;;;;;;;;;;;;5008413;28;19943;-85
2022/09/26 03:44:42;;;;;;;;;;;;;;;;;;5000831;28;19943;-85
2022/09/26 03:47:25;;;;;;;;;;;;;;;;;;5024121;28;19967;-85
2022/09/26 03:49:52;;;;;;;;;;;;;;;;;;5017853;28;19928;-85
2022/09/26 03:52:20;;;;;;;;;;;;;;;;;;5002413;28;20708;-85
2022/09/26 03:54:47;;;;;;;;;;;;;;;;;;4971420;28;19970;-85
2022/09/26 03:57:14;;;;;;;;;;;;;;;;;;4999336;28;19964;-85
2022/09/26 03:59:42;;;;;;;;;;;;;;;;;;5002711;28;19935;-85
2022/09/26 04:02:09;;;;;;;;;;;;;;;;;;4979905;28;20035;-84
2022/09/26 04:04:35;;;;;;;;;;;;;;;;;;5005291;28;20315;-85
2022/09/26 04:07:02;;;;;;;;;;;;;;;;;;4991789;28;19929;-85
2022/09/26 04:09:29;;;;;;;;;;;;;;;;;;4986692;28;19931;-85
2022/09/26 04:11:58;;;;;;;;;;;;;;;;;;4997879;28;19928;-85
2022/09/26 04:14:38;;;;;;;;;;;;;;;;;;5039270;28;19935;-84
2022/09/26 04:17:06;;;;;;;;;;;;;;;;;;5015249;28;22967;-85
2022/09/26 04:19:32;;;;;;;;;;;;;;;;;;5041744;28;20397;-85
2022/09/26 04:22:00;;;;;;;;;;;;;;;;;;5016450;28;19924;-85
2022/09/26 04:24:33;;;;;;;;;;;;;;;;;;5016730;28;20015;-85
2022/09/26 04:27:01;;;;;;;;;;;;;;;;;;4991068;28;21648;-85
2022/09/26 04:29:27;;;;;;;;;;;;;;;;;;5021343;28;20406;-85
2022/09/26 04:31:56;;;;;;;;;;;;;;;;;;5024060;28;19924;-84
2022/09/26 04:34:38;;;;;;;;;;;;;;;;;;5022106;28;19978;-84
2022/09/26 04:37:05;;;;;;;;;;;;;;;;;;5019115;28;20012;-84
2022/09/26 04:39:34;;;;;;;;;;;;;;;;;;5039257;28;19924;-84
2022/09/26 04:42:02;;;;;;;;;;;;;;;;;;4998103;28;20006;-84
2022/09/26 04:44:29;;;;;;;;;;;;;;;;;;5023699;28;19936;-84
2022/09/26 04:47:10;;;;;;;;;;;;;;;;;;5061248;27;20003;-84
2022/09/26 04:49:42;;;;;;;;;;;;;;;;;;5066558;27;20006;-84
2022/09/26 04:52:09;;;;;;;;;;;;;;;;;;5074086;28;19924;-84
2022/09/26 04:54:37;;;;;;;;;;;;;;;;;;5051890;28;19962;-84
2022/09/26 04:57:23;;;;;;;;;;;;;;;;;;5085059;28;19962;-84
2022/09/26 04:59:51;;;;;;;;;;;;;;;;;;5075463;28;19931;-84
2022/09/26 05:02:37;;;;;;;;;;;;;;;;;;5064129;28;19923;-84
2022/09/26 05:05:20;;;;;;;;;;;;;;;;;;5070188;28;19935;-84
2022/09/26 05:07:47;;;;;;;;;;;;;;;;;;5056207;28;20282;-84
2022/09/26 05:10:15;;;;;;;;;;;;;;;;;;5047029;28;19923;-84
2022/09/26 05:12:42;;;;;;;;;;;;;;;;;;5078539;28;19935;-84
2022/09/26 05:15:09;;;;;;;;;;;;;;;;;;5045041;28;19935;-84
2022/09/26 05:17:35;;;;;;;;;;;;;;;;;;5070999;28;19924;-85
2022/09/26 05:20:02;;;;;;;;;;;;;;;;;;5050123;28;19927;-85
2022/09/26 05:22:27;;;;;;;;;;;;;;;;;;5057617;28;19927;-85
2022/09/26 05:27:38;;;;;;;;;;;;;;;;;;5059144;28;20054;-85
2022/09/26 05:30:06;;;;;;;;;;;;;;;;;;5050018;28;20285;-85
2022/09/26 05:32:37;;;;;;;;;;;;;;;;;;5077257;27;19924;-85
2022/09/26 05:35:07;;;;;;;;;;;;;;;;;;5038463;28;20305;-85
2022/09/26 05:37:35;;;;;;;;;;;;;;;;;;5004224;28;19924;-85
2022/09/26 05:42:50;;;;;;;;;;;;;;;;;;5019968;28;19928;-85
2022/09/26 05:45:16;;;;;;;;;;;;;;;;;;5033878;28;19928;-86
2022/09/26 05:47:42;;;;;;;;;;;;;;;;;;5010115;28;20471;-86
2022/09/26 05:50:09;;;;;;;;;;;;;;;;;;4997233;28;19935;-86
2022/09/26 05:52:37;;;;;;;;;;;;;;;;;;5020351;28;20413;-85
2022/09/26 05:55:04;;;;;;;;;;;;;;;;;;5016244;28;22029;-86
2022/09/26 06:03:45;;;;;;;;;;;;;;;;;;5009033;28;20018;-86
2022/09/26 06:06:12;;;;;;;;;;;;;;;;;;4981902;28;19931;-87
2022/09/26 06:08:40;;;;;;;;;;;;;;;;;;4991749;28;19976;-86
2022/09/26 06:11:31;;;;;;;;;;;;;;;;;;5023320;28;19935;-86
2022/09/26 06:13:59;;;;;;;;;;;;;;;;;;4998964;28;19935;-86
2022/09/26 06:16:26;;;;;;;;;;;;;;;;;;5006274;28;20366;-86
2022/09/26 06:18:54;;;;;;;;;;;;;;;;;;4987241;28;20821;-86
2022/09/26 06:21:38;;;;;;;;;;;;;;;;;;5006130;28;19955;-86
2022/09/26 06:24:05;;;;;;;;;;;;;;;;;;4989050;28;19925;-86
2022/09/26 06:26:33;;;;;;;;;;;;;;;;;;4975033;28;19936;-85
2022/09/26 06:28:59;;;;;;;;;;;;;;;;;;4982538;28;21113;-86
2022/09/26 06:31:27;;;;;;;;;;;;;;;;;;4986626;28;20359;-86
2022/09/26 06:33:54;;;;;;;;;;;;;;;;;;4979652;28;19932;-86
2022/09/26 06:36:30;;;;;;;;;;;;;;;;;;5034859;28;20445;-86
2022/09/26 06:38:57;;;;;;;;;;;;;;;;;;5029459;28;20444;-86
2022/09/26 06:41:25;;;;;;;;;;;;;;;;;;4996197;28;19933;-85
2022/09/26 06:43:51;;;;;;;;;;;;;;;;;;5019331;28;19929;-85
2022/09/26 06:46:32;;;;;;;;;;;;;;;;;;5019930;28;19921;-85
2022/09/26 06:49:00;;;;;;;;;;;;;;;;;;4991607;28;20971;-86
2022/09/26 06:51:27;;;;;;;;;;;;;;;;;;5004476;28;20015;-86
2022/09/26 06:53:54;;;;;;;;;;;;;;;;;;5024391;28;20433;-86
2022/09/26 06:56:22;;;;;;;;;;;;;;;;;;5043322;28;21316;-85
2022/09/26 06:58:48;;;;;;;;;;;;;;;;;;5023364;28;20308;-86
2022/09/26 07:01:14;;;;;;;;;;;;;;;;;;5056211;28;19927;-85
2022/09/26 07:03:40;;;;;;;;;;;;;;;;;;5030394;28;21882;-86
2022/09/26 07:06:06;;;;;;;;;;;;;;;;;;5044486;28;19920;-85
2022/09/26 07:08:32;;;;;;;;;;;;;;;;;;5046743;28;19920;-85
2022/09/26 07:10:58;;;;;;;;;;;;;;;;;;5044536;28;21608;-86
2022/09/26 07:13:24;;;;;;;;;;;;;;;;;;5048948;28;19955;-86
2022/09/26 07:15:50;;;;;;;;;;;;;;;;;;5045624;28;19928;-86
2022/09/26 07:18:16;;;;;;;;;;;;;;;;;;5069179;28;19935;-86
2022/09/26 07:20:45;;;;;;;;;;;;;;;;;;5048714;28;20849;-86
2022/09/26 07:23:12;;;;;;;;;;;;;;;;;;5056369;28;20029;-86
2022/09/26 07:25:45;;;;;;;;;;;;;;;;;;5084510;28;19923;-87
2022/09/26 07:28:12;;;;;;;;;;;;;;;;;;5070068;28;20801;-87
2022/09/26 07:30:42;;;;;;;;;;;;;;;;;;5072309;28;19932;-87
2022/09/26 07:33:08;;;;;;;;;;;;;;;;;;5090850;28;19923;-86
2022/09/26 07:35:36;;;;;;;;;;;;;;;;;;5070994;28;19935;-86
2022/09/26 07:38:06;;;;;;;;;;;;;;;;;;5066076;28;19973;-87
2022/09/26 07:40:32;;;;;;;;;;;;;;;;;;5055787;28;19950;-86
2022/09/26 07:42:59;;;;;;;;;;;;;;;;;;5062823;28;20301;-86
2022/09/26 07:51:02;;;;;;;;;;;;;;;;;;5063277;28;20294;-86
2022/09/26 07:53:28;;;;;;;;;;;;;;;;;;5077340;28;20632;-86
2022/09/26 07:56:11;;;;;;;;;;;;;;;;;;5069934;28;19971;-86
2022/09/26 07:58:54;;;;;;;;;;;;;;;;;;5071303;28;19981;-86
2022/09/26 08:01:37;;;;;;;;;;;;;;;;;;5052008;28;19929;-85
2022/09/26 08:04:08;;;;;;;;;;;;;;;;;;5047770;28;19935;-86
2022/09/26 08:06:42;;;;;;;;;;;;;;;;;;5047352;28;19924;-86
2022/09/26 08:09:17;;;;;;;;;;;;;;;;;;5054143;28;20749;-86
2022/09/26 08:11:45;;;;;;;;;;;;;;;;;;5032313;28;20539;-86
2022/09/26 08:14:13;;;;;;;;;;;;;;;;;;5062569;28;19924;-86
2022/09/26 08:16:40;;;;;;;;;;;;;;;;;;5030903;28;20725;-86
2022/09/26 08:19:10;;;;;;;;;;;;;;;;;;5050493;28;19931;-86
2022/09/26 08:21:51;;;;;;;;;;;;;;;;;;5048570;28;19924;-86
2022/09/26 08:24:17;;;;;;;;;;;;;;;;;;5053531;28;19928;-86
2022/09/26 08:26:43;;;;;;;;;;;;;;;;;;5034494;28;19924;-86
2022/09/26 08:29:11;;;;;;;;;;;;;;;;;;5033885;28;20473;-86
2022/09/26 08:31:41;;;;;;;;;;;;;;;;;;5054361;28;19934;-86
2022/09/26 08:34:08;;;;;;;;;;;;;;;;;;5033766;28;20738;-87
2022/09/26 08:36:35;;;;;;;;;;;;;;;;;;5052990;28;20377;-86
2022/09/26 08:39:02;;;;;;;;;;;;;;;;;;5044722;28;20298;-86
2022/09/26 08:41:31;;;;;;;;;;;;;;;;;;5050296;28;19928;-86
2022/09/26 08:44:02;;;;;;;;;;;;;;;;;;5063457;28;21225;-86
2022/09/26 08:46:43;;;;;;;;;;;;;;;;;;5068120;28;20383;-86
2022/09/26 08:49:22;;;;;;;;;;;;;;;;;;5067970;28;20407;-86
2022/09/26 08:51:58;;;;;;;;;;;;;;;;;;5066716;28;19928;-86
2022/09/26 08:54:26;;;;;;;;;;;;;;;;;;5070085;28;19977;-86
2022/09/26 08:56:53;;;;;;;;;;;;;;;;;;5062308;28;19924;-86
2022/09/26 08:59:20;;;;;;;;;;;;;;;;;;5070511;28;20737;-86
2022/09/26 09:01:47;;;;;;;;;;;;;;;;;;5080626;28;19924;-86
2022/09/26 09:04:14;;;;;;;;;;;;;;;;;;5075675;28;19927;-86
2022/09/26 09:06:50;;;;;;;;;;;;;;;;;;5091718;28;20388;-86
2022/09/26 09:09:17;;;;;;;;;;;;;;;;;;5078077;28;19926;-86
2022/09/26 09:11:44;;;;;;;;;;;;;;;;;;5054902;28;19977;-86
2022/09/26 09:14:11;;;;;;;;;;;;;;;;;;5079539;28;19920;-86
2022/09/26 09:16:41;;;;;;;;;;;;;;;;;;5075942;28;19923;-86
2022/09/26 09:19:09;;;;;;;;;;;;;;;;;;5063233;28;19957;-86
2022/09/26 09:21:53;;;;;;;;;;;;;;;;;;5064012;28;19931;-86
2022/09/26 09:24:20;;;;;;;;;;;;;;;;;;5074794;28;19927;-86
2022/09/26 09:26:47;;;;;;;;;;;;;;;;;;5076482;28;19920;-85
2022/09/26 09:29:14;;;;;;;;;;;;;;;;;;5052796;28;20500;-86
2022/09/26 09:31:42;;;;;;;;;;;;;;;;;;5069417;28;20514;-86
2022/09/26 09:34:08;;;;;;;;;;;;;;;;;;5067033;28;19934;-86
2022/09/26 09:36:34;;;;;;;;;;;;;;;;;;5067306;28;19928;-86
2022/09/26 09:39:01;;;;;;;;;;;;;;;;;;5080272;28;19928;-86
2022/09/26 09:41:27;;;;;;;;;;;;;;;;;;5070504;28;19940;-86
2022/09/26 09:43:54;;;;;;;;;;;;;;;;;;5053052;28;19920;-86
2022/09/26 09:46:27;;;;;;;;;;;;;;;;;;5088184;28;19920;-86
2022/09/26 09:48:55;;;;;;;;;;;;;;;;;;5058477;28;19923;-86
2022/09/26 09:51:39;;;;;;;;;;;;;;;;;;5071175;28;19919;-86
2022/09/26 09:54:06;;;;;;;;;;;;;;;;;;5053066;28;19924;-85
2022/09/26 09:56:33;;;;;;;;;;;;;;;;;;5069866;28;20378;-86
2022/09/26 09:59:02;;;;;;;;;;;;;;;;;;5047627;28;20054;-86
2022/09/26 10:01:30;;;;;;;;;;;;;;;;;;5068138;28;20238;-86
2022/09/26 10:03:57;;;;;;;;;;;;;;;;;;5047383;28;19924;-87
2022/09/26 10:06:25;;;;;;;;;;;;;;;;;;5069731;28;19924;-86
2022/09/26 10:08:52;;;;;;;;;;;;;;;;;;5048610;28;19928;-86
2022/09/26 10:11:22;;;;;;;;;;;;;;;;;;5054743;28;19923;-87
2022/09/26 10:14:11;;;;;;;;;;;;;;;;;;5087655;28;20278;-86
2022/09/26 10:16:41;;;;;;;;;;;;;;;;;;5071055;28;19920;-86
2022/09/26 10:19:08;;;;;;;;;;;;;;;;;;5061486;28;19924;-86
2022/09/26 10:21:38;;;;;;;;;;;;;;;;;;5076136;28;20038;-86
2022/09/26 10:24:26;;;;;;;;;;;;;;;;;;5096202;28;20346;-86
2022/09/26 10:26:53;;;;;;;;;;;;;;;;;;5068757;28;19920;-86
2022/09/26 10:29:20;;;;;;;;;;;;;;;;;;5072044;28;20325;-87
2022/09/26 10:31:48;;;;;;;;;;;;;;;;;;5068158;28;20286;-87
2022/09/26 10:34:15;;;;;;;;;;;;;;;;;;5074140;28;19973;-87
2022/09/26 10:36:43;;;;;;;;;;;;;;;;;;5066801;28;20267;-86
2022/09/26 10:41:59;;;;;;;;;;;;;;;;;;5068958;28;19975;-86
2022/09/26 10:44:25;;;;;;;;;;;;;;;;;;5053396;28;20815;-87
2022/09/26 10:46:55;;;;;;;;;;;;;;;;;;5085094;27;19935;-86
2022/09/26 10:49:25;;;;;;;;;;;;;;;;;;5066673;28;19959;-86
2022/09/26 10:51:53;;;;;;;;;;;;;;;;;;5070634;28;19928;-86
2022/09/26 10:54:42;;;;;;;;;;;;;;;;;;5048647;28;19924;-86
2022/09/26 10:57:09;;;;;;;;;;;;;;;;;;5039336;28;20009;-86
2022/09/26 10:59:55;;;;;;;;;;;;;;;;;;5049419;28;20597;-86
2022/09/26 11:02:22;;;;;;;;;;;;;;;;;;5051512;28;19935;-86
2022/09/26 11:07:39;;;;;;;;;;;;;;;;;;5046157;28;19931;-86
2022/09/26 11:10:05;;;;;;;;;;;;;;;;;;5065993;28;20326;-86
2022/09/26 11:12:38;;;;;;;;;;;;;;;;;;5075795;28;19923;-86
2022/09/26 11:15:07;;;;;;;;;;;;;;;;;;5062772;28;19924;-85
2022/09/26 11:17:37;;;;;;;;;;;;;;;;;;5068891;28;19928;-86
2022/09/26 11:20:04;;;;;;;;;;;;;;;;;;5045325;28;19949;-87
2022/09/26 11:22:31;;;;;;;;;;;;;;;;;;5063262;28;19924;-87
2022/09/26 11:24:59;;;;;;;;;;;;;;;;;;5045782;28;19993;-86
2022/09/26 11:27:46;;;;;;;;;;;;;;;;;;5011016;28;19916;-87
2022/09/26 11:30:13;;;;;;;;;;;;;;;;;;5014104;28;19929;-87
2022/09/26 11:32:53;;;;;;;;;;;;;;;;;;5019380;28;20044;-86
2022/09/26 11:35:28;;;;;;;;;;;;;;;;;;5013694;28;20016;-87
2022/09/26 11:37:58;;;;;;;;;;;;;;;;;;5017032;28;20026;-87
2022/09/26 11:40:50;;;;;;;;;;;;;;;;;;5023554;28;20051;-87
2022/09/26 11:43:16;;;;;;;;;;;;;;;;;;4993834;28;22256;-87
2022/09/26 11:45:47;;;;;;;;;;;;;;;;;;5003534;28;20008;-87
2022/09/26 11:48:15;;;;;;;;;;;;;;;;;;5011957;28;19933;-87
2022/09/26 11:50:42;;;;;;;;;;;;;;;;;;4991298;28;19929;-87
2022/09/26 11:53:09;;;;;;;;;;;;;;;;;;5012321;28;19967;-87
2022/09/26 11:55:53;;;;;;;;;;;;;;;;;;5022982;28;20295;-88
2022/09/26 11:58:24;;;;;;;;;;;;;;;;;;5030935;28;19921;-87
2022/09/26 12:00:51;;;;;;;;;;;;;;;;;;5025811;28;19932;-87
2022/09/26 12:03:18;;;;;;;;;;;;;;;;;;5029187;28;20329;-87
2022/09/26 12:06:06;;;;;;;;;;;;;;;;;;4989657;28;20362;-87
2022/09/26 12:08:52;;;;;;;;;;;;;;;;;;4986004;28;20819;-87
2022/09/26 12:11:19;;;;;;;;;;;;;;;;;;4996742;28;19921;-87
2022/09/26 12:13:51;;;;;;;;;;;;;;;;;;4991137;28;19928;-86
2022/09/26 12:16:20;;;;;;;;;;;;;;;;;;5007897;28;20396;-88
2022/09/26 12:18:57;;;;;;;;;;;;;;;;;;5004184;28;19928;-87
2022/09/26 12:21:26;;;;;;;;;;;;;;;;;;5016887;28;19929;-86
2022/09/26 12:23:56;;;;;;;;;;;;;;;;;;4996440;28;19929;-87
2022/09/26 12:26:44;;;;;;;;;;;;;;;;;;5001586;28;19921;-87
2022/09/26 12:29:10;;;;;;;;;;;;;;;;;;5006540;28;20026;-87
2022/09/26 12:31:37;;;;;;;;;;;;;;;;;;5005125;28;20015;-87
2022/09/26 12:34:06;;;;;;;;;;;;;;;;;;5017280;28;20495;-87
2022/09/26 12:36:46;;;;;;;;;;;;;;;;;;5026075;28;19929;-87
2022/09/26 12:39:12;;;;;;;;;;;;;;;;;;5024872;28;19925;-87
2022/09/26 12:41:39;;;;;;;;;;;;;;;;;;5002905;28;19928;-88
2022/09/26 12:44:09;;;;;;;;;;;;;;;;;;5023834;28;19929;-87
2022/09/26 12:46:35;;;;;;;;;;;;;;;;;;5025671;28;20425;-87
2022/09/26 12:49:03;;;;;;;;;;;;;;;;;;5019975;28;19968;-87
2022/09/26 12:51:30;;;;;;;;;;;;;;;;;;5030058;28;20050;-87
2022/09/26 12:53:57;;;;;;;;;;;;;;;;;;5044414;28;20064;-88
2022/09/26 12:56:28;;;;;;;;;;;;;;;;;;5029372;28;19934;-88
2022/09/26 12:58:56;;;;;;;;;;;;;;;;;;5030581;28;19932;-88
2022/09/26 13:01:27;;;;;;;;;;;;;;;;;;5061456;28;19932;-86
2022/09/26 13:03:54;;;;;;;;;;;;;;;;;;5043431;28;19920;-87
2022/09/26 13:06:22;;;;;;;;;;;;;;;;;;5044577;28;19936;-87
2022/09/26 13:08:52;;;;;;;;;;;;;;;;;;5041945;28;20332;-87
2022/09/26 13:11:29;;;;;;;;;;;;;;;;;;5041129;28;19928;-87
2022/09/26 13:14:16;;;;;;;;;;;;;;;;;;5042799;28;19930;-87
2022/09/26 13:16:53;;;;;;;;;;;;;;;;;;5035957;28;19928;-87
2022/09/26 13:19:21;;;;;;;;;;;;;;;;;;5042498;28;20052;-87
2022/09/26 13:21:48;;;;;;;;;;;;;;;;;;5005089;28;19962;-87
2022/09/26 13:24:17;;;;;;;;;;;;;;;;;;5005453;28;19930;-87
2022/09/26 13:26:59;;;;;;;;;;;;;;;;;;5039600;28;20616;-88
2022/09/26 13:29:28;;;;;;;;;;;;;;;;;;5025867;28;19935;-87
2022/09/26 13:32:03;;;;;;;;;;;;;;;;;;5039247;28;19924;-87
2022/09/26 14:15:50;;;;;;;;;;;;;;;;;;5114895;23;20385;-90
2022/09/26 14:18:17;;;;;;;;;;;;;;;;;;4809307;29;19932;-89
2022/09/26 14:20:45;;;;;;;;;;;;;;;;;;4801302;29;19932;-88
2022/09/26 14:23:12;;;;;;;;;;;;;;;;;;4822830;29;19932;-89
2022/09/26 14:25:41;;;;;;;;;;;;;;;;;;4820622;29;19932;-88
2022/09/26 14:28:09;;;;;;;;;;;;;;;;;;4808770;29;19928;-88
2022/09/26 14:30:36;;;;;;;;;;;;;;;;;;4825808;29;19937;-89
2022/09/26 14:33:04;;;;;;;;;;;;;;;;;;4818796;29;19931;-87
2022/09/26 14:35:30;;;;;;;;;;;;;;;;;;4812872;29;20280;-86
2022/09/26 14:37:59;;;;;;;;;;;;;;;;;;4830499;29;20404;-87
2022/09/26 14:40:27;;;;;;;;;;;;;;;;;;4821533;29;20035;-87
2022/09/26 14:42:58;;;;;;;;;;;;;;;;;;4818148;29;19929;-87
2022/09/26 14:45:35;;;;;;;;;;;;;;;;;;4826467;29;19932;-87
2022/09/26 14:48:02;;;;;;;;;;;;;;;;;;4829528;29;19932;-86
2022/09/26 14:50:33;;;;;;;;;;;;;;;;;;4820549;29;19927;-87
2022/09/26 14:53:19;;;;;;;;;;;;;;;;;;4832701;29;19939;-86
2022/09/26 14:55:44;;;;;;;;;;;;;;;;;;4813609;29;19927;-86
2022/09/26 14:58:12;;;;;;;;;;;;;;;;;;4825799;29;20395;-89
2022/09/26 15:00:39;;;;;;;;;;;;;;;;;;4801846;29;19933;-89
2022/09/26 15:03:10;;;;;;;;;;;;;;;;;;4775083;29;20284;-89
2022/09/26 15:05:37;;;;;;;;;;;;;;;;;;4774010;29;19935;-89
2022/09/26 15:08:05;;;;;;;;;;;;;;;;;;4771823;29;20373;-88
2022/09/26 15:10:32;;;;;;;;;;;;;;;;;;4775091;29;19933;-88
2022/09/26 15:12:59;;;;;;;;;;;;;;;;;;4768797;29;19930;-89
2022/09/26 15:15:30;;;;;;;;;;;;;;;;;;4759806;29;19993;-89
2022/09/26 15:17:57;;;;;;;;;;;;;;;;;;4769966;29;19929;-89
2022/09/26 15:20:24;;;;;;;;;;;;;;;;;;4773684;29;19926;-88
2022/09/26 15:23:06;;;;;;;;;;;;;;;;;;4750001;29;20445;-89
2022/09/26 15:25:34;;;;;;;;;;;;;;;;;;4750444;30;19933;-90
2022/09/26 15:28:01;;;;;;;;;;;;;;;;;;4743010;29;21268;-89
2022/09/26 15:30:28;;;;;;;;;;;;;;;;;;4737176;30;20315;-89
2022/09/26 15:32:56;;;;;;;;;;;;;;;;;;4743902;29;20278;-89
2022/09/26 15:35:23;;;;;;;;;;;;;;;;;;4745449;30;20037;-89
2022/09/26 15:38:05;;;;;;;;;;;;;;;;;;4742404;29;19947;-88
2022/09/26 15:40:32;;;;;;;;;;;;;;;;;;4751035;29;20043;-89
2022/09/26 15:43:04;;;;;;;;;;;;;;;;;;4778971;29;19925;-90
2022/09/26 15:45:32;;;;;;;;;;;;;;;;;;4762713;29;20788;-89
2022/09/26 15:47:59;;;;;;;;;;;;;;;;;;4773020;29;19932;-89
2022/09/26 15:50:40;;;;;;;;;;;;;;;;;;4750580;29;19929;-89
2022/09/26 15:53:08;;;;;;;;;;;;;;;;;;4748176;29;19975;-89
2022/09/26 15:55:36;;;;;;;;;;;;;;;;;;4788953;29;19928;-90
2022/09/26 15:58:22;;;;;;;;;;;;;;;;;;4789282;29;19980;-90
2022/09/26 16:00:50;;;;;;;;;;;;;;;;;;4778008;29;19929;-89
2022/09/26 16:03:17;;;;;;;;;;;;;;;;;;4796564;29;20923;-89
2022/09/26 16:05:44;;;;;;;;;;;;;;;;;;4785751;29;20945;-91
2022/09/26 16:08:10;;;;;;;;;;;;;;;;;;4802160;29;19949;-88
2022/09/26 16:10:38;;;;;;;;;;;;;;;;;;4782318;29;19936;-89
2022/09/26 16:13:09;;;;;;;;;;;;;;;;;;4766873;29;20136;-89
2022/09/26 16:15:54;;;;;;;;;;;;;;;;;;4766153;29;20313;-89
2022/09/26 16:18:21;;;;;;;;;;;;;;;;;;4758483;29;19956;-89
2022/09/26 16:20:48;;;;;;;;;;;;;;;;;;4772666;29;19933;-89
2022/09/26 16:23:16;;;;;;;;;;;;;;;;;;4778575;29;19967;-88
2022/09/26 16:25:46;;;;;;;;;;;;;;;;;;4794405;29;19932;-89
2022/09/26 16:28:16;;;;;;;;;;;;;;;;;;4817379;29;19928;-89
2022/09/26 16:31:07;;;;;;;;;;;;;;;;;;4769630;29;19933;-87
2022/09/26 16:33:53;;;;;;;;;;;;;;;;;;4715968;30;20313;-88
2022/09/26 16:36:20;;;;;;;;;;;;;;;;;;4720633;30;19965;-86
2022/09/26 16:39:03;;;;;;;;;;;;;;;;;;4682940;30;19985;-87
2022/09/26 16:41:30;;;;;;;;;;;;;;;;;;4685110;30;19939;-88
2022/09/26 16:44:09;;;;;;;;;;;;;;;;;;4661237;30;20499;-87
2022/09/26 16:46:43;;;;;;;;;;;;;;;;;;4673592;30;20017;-87
2022/09/26 16:49:22;;;;;;;;;;;;;;;;;;4665022;30;20327;-89
2022/09/26 16:51:48;;;;;;;;;;;;;;;;;;4666377;30;19931;-87
2022/09/26 16:54:20;;;;;;;;;;;;;;;;;;4668222;30;19985;-87
2022/09/26 16:56:50;;;;;;;;;;;;;;;;;;4664245;30;19941;-87
2022/09/26 16:59:37;;;;;;;;;;;;;;;;;;4644948;30;19938;-87
2022/09/26 17:02:04;;;;;;;;;;;;;;;;;;4641948;30;19939;-86
2022/09/26 17:04:30;;;;;;;;;;;;;;;;;;4650190;30;19946;-86
2022/09/26 17:06:56;;;;;;;;;;;;;;;;;;4650276;30;21814;-87
2022/09/26 17:09:27;;;;;;;;;;;;;;;;;;4647221;30;19931;-87
2022/09/26 17:11:53;;;;;;;;;;;;;;;;;;4620577;30;20016;-87
2022/09/26 17:14:19;;;;;;;;;;;;;;;;;;4612274;30;20168;-86
2022/09/26 17:16:56;;;;;;;;;;;;;;;;;;4649734;30;19947;-87
2022/09/26 17:19:22;;;;;;;;;;;;;;;;;;4693476;30;19935;-87
2022/09/26 17:21:50;;;;;;;;;;;;;;;;;;4671907;30;19938;-87
2022/09/26 17:24:29;;;;;;;;;;;;;;;;;;4698145;30;19979;-87
2022/09/26 17:26:56;;;;;;;;;;;;;;;;;;4702885;30;20015;-86
2022/09/26 17:29:22;;;;;;;;;;;;;;;;;;4731721;30;20302;-86
2022/09/26 17:31:58;;;;;;;;;;;;;;;;;;4714549;30;19930;-86
2022/09/26 17:34:24;;;;;;;;;;;;;;;;;;4725560;30;20037;-86
2022/09/26 17:36:52;;;;;;;;;;;;;;;;;;4717151;30;19929;-87
2022/09/26 17:39:39;;;;;;;;;;;;;;;;;;4722647;30;19937;-88
2022/09/26 17:42:29;;;;;;;;;;;;;;;;;;4736697;29;20103;-89
2022/09/26 17:44:56;;;;;;;;;;;;;;;;;;4792682;29;20014;-89
2022/09/26 17:47:22;;;;;;;;;;;;;;;;;;4788517;29;19932;-88
2022/09/26 17:49:53;;;;;;;;;;;;;;;;;;4776211;29;19931;-89
2022/09/26 17:52:23;;;;;;;;;;;;;;;;;;4811661;29;19925;-88
2022/09/26 17:54:54;;;;;;;;;;;;;;;;;;4790856;29;19932;-87
2022/09/26 17:57:23;;;;;;;;;;;;;;;;;;4808910;29;20027;-87
2022/09/26 17:59:53;;;;;;;;;;;;;;;;;;4791364;29;21098;-87
2022/09/26 18:02:22;;;;;;;;;;;;;;;;;;4809981;29;19962;-88
2022/09/26 18:05:09;;;;;;;;;;;;;;;;;;4749674;30;19969;-87
2022/09/26 18:07:55;;;;;;;;;;;;;;;;;;4740543;29;19972;-85
2022/09/26 18:10:21;;;;;;;;;;;;;;;;;;4744111;29;19934;-85